sensor_id;sensor_type;location;lat;lon;timestamp;temperature;humidity
32476;DHT22;18929;48.008;10.882;2023-05-15T00:02:09;15.10;99.90
32476;DHT22;18929;48.008;10.882;2023-05-15T00:04:37;15.00;99.90
32476;DHT22;18929;48.008;10.882;2023-05-15T00:07:03;15.00;99.90
32476;DHT22;18929;48.008;10.882;2023-05-15T00:09:32;14.90;99.90
32476;DHT22;18929;48.008;10.882;2023-05-15T00:11:58;14.80;99.90
32476;DHT22;18929;48.008;10.882;2023-05-15T00:14:25;14.70;99.90
32476;DHT22;18929;48.008;10.882;2023-05-15T00:16:52;14.80;99.90
32476;DHT22;18929;48.008;10.882;2023-05-15T00:19:19;14.70;99.90
32476;DHT22;18929;48.008;10.882;2023-05-15T00:21:46;14.70;99.90
32476;DHT22;18929;48.008;10.882;2023-05-15T00:24:12;14.60;99.90
32476;DHT22;18929;48.008;10.882;2023-05-15T00:26:40;14.60;99.90
32476;DHT22;18929;48.008;10.882;2023-05-15T00:29:07;14.60;99.90
32476;DHT22;18929;48.008;10.882;2023-05-15T00:31:34;14.70;99.90
32476;DHT22;18929;48.008;10.882;2023-05-15T00:34:01;14.60;99.90
32476;DHT22;18929;48.008;10.882;2023-05-15T00:36:27;14.70;99.90
32476;DHT22;18929;48.008;10.882;2023-05-15T00:38:55;14.70;99.90
32476;DHT22;18929;48.008;10.882;2023-05-15T00:41:22;14.70;99.90
32476;DHT22;18929;48.008;10.882;2023-05-15T00:43:51;14.60;99.90
32476;DHT22;18929;48.008;10.882;2023-05-15T00:46:18;14.50;99.90
32476;DHT22;18929;48.008;10.882;2023-05-15T00:48:45;14.50;99.90
32476;DHT22;18929;48.008;10.882;2023-05-15T00:51:12;14.60;99.90
32476;DHT22;18929;48.008;10.882;2023-05-15T00:53:39;14.60;99.90
32476;DHT22;18929;48.008;10.882;2023-05-15T00:56:06;14.50;99.90
32476;DHT22;18929;48.008;10.882;2023-05-15T00:58:34;14.60;99.90
32476;DHT22;18929;48.008;10.882;2023-05-15T01:01:03;14.50;99.90
32476;DHT22;18929;48.008;10.882;2023-05-15T01:03:30;14.50;99.90
32476;DHT22;18929;48.008;10.882;2023-05-15T01:05:57;14.40;99.90
32476;DHT22;18929;48.008;10.882;2023-05-15T01:08:25;14.40;99.90
32476;DHT22;18929;48.008;10.882;2023-05-15T01:10:52;14.30;99.90
32476;DHT22;18929;48.008;10.882;2023-05-15T01:13:20;14.20;99.90
32476;DHT22;18929;48.008;10.882;2023-05-15T01:15:47;14.30;99.90
32476;DHT22;18929;48.008;10.882;2023-05-15T01:18:15;14.30;99.90
32476;DHT22;18929;48.008;10.882;2023-05-15T01:20:46;14.30;99.90
32476;DHT22;18929;48.008;10.882;2023-05-15T01:23:15;14.30;99.90
32476;DHT22;18929;48.008;10.882;2023-05-15T01:25:47;14.20;99.90
32476;DHT22;18929;48.008;10.882;2023-05-15T01:28:21;14.00;99.90
32476;DHT22;18929;48.008;10.882;2023-05-15T01:30:48;14.00;99.90
32476;DHT22;18929;48.008;10.882;2023-05-15T01:33:17;14.10;99.90
32476;DHT22;18929;48.008;10.882;2023-05-15T01:35:49;14.00;99.90
32476;DHT22;18929;48.008;10.882;2023-05-15T01:41:08;14.00;99.90
32476;DHT22;18929;48.008;10.882;2023-05-15T01:43:38;14.00;99.90
32476;DHT22;18929;48.008;10.882;2023-05-15T01:46:05;13.90;99.90
32476;DHT22;18929;48.008;10.882;2023-05-15T01:48:32;14.00;99.90
32476;DHT22;18929;48.008;10.882;2023-05-15T01:51:01;13.90;99.90
32476;DHT22;18929;48.008;10.882;2023-05-15T01:53:29;13.90;99.90
32476;DHT22;18929;48.008;10.882;2023-05-15T01:55:57;13.90;99.90
32476;DHT22;18929;48.008;10.882;2023-05-15T01:58:24;13.80;99.90
32476;DHT22;18929;48.008;10.882;2023-05-15T02:00:53;13.60;99.90
32476;DHT22;18929;48.008;10.882;2023-05-15T02:03:20;13.70;99.90
32476;DHT22;18929;48.008;10.882;2023-05-15T02:05:47;13.70;99.90
32476;DHT22;18929;48.008;10.882;2023-05-15T02:08:14;13.70;99.90
32476;DHT22;18929;48.008;10.882;2023-05-15T02:10:41;13.70;99.90
32476;DHT22;18929;48.008;10.882;2023-05-15T02:13:08;13.80;99.90
32476;DHT22;18929;48.008;10.882;2023-05-15T02:15:35;13.90;99.90
32476;DHT22;18929;48.008;10.882;2023-05-15T02:18:04;14.00;99.90
32476;DHT22;18929;48.008;10.882;2023-05-15T02:20:31;14.10;99.90
32476;DHT22;18929;48.008;10.882;2023-05-15T02:22:58;13.90;99.90
32476;DHT22;18929;48.008;10.882;2023-05-15T02:25:26;13.80;99.90
32476;DHT22;18929;48.008;10.882;2023-05-15T02:27:55;13.60;99.90
32476;DHT22;18929;48.008;10.882;2023-05-15T02:30:27;13.60;99.90
32476;DHT22;18929;48.008;10.882;2023-05-15T02:32:59;13.60;99.90
32476;DHT22;18929;48.008;10.882;2023-05-15T02:35:31;13.60;99.90
32476;DHT22;18929;48.008;10.882;2023-05-15T02:38:01;13.70;99.90
32476;DHT22;18929;48.008;10.882;2023-05-15T02:40:29;13.70;99.90
32476;DHT22;18929;48.008;10.882;2023-05-15T02:42:56;13.50;99.90
32476;DHT22;18929;48.008;10.882;2023-05-15T02:45:23;13.40;99.90
32476;DHT22;18929;48.008;10.882;2023-05-15T02:47:51;13.30;99.90
32476;DHT22;18929;48.008;10.882;2023-05-15T02:50:18;13.40;99.90
32476;DHT22;18929;48.008;10.882;2023-05-15T02:52:46;13.30;99.90
32476;DHT22;18929;48.008;10.882;2023-05-15T02:55:14;13.40;99.90
32476;DHT22;18929;48.008;10.882;2023-05-15T02:57:40;13.80;99.90
32476;DHT22;18929;48.008;10.882;2023-05-15T03:00:08;13.70;99.90
32476;DHT22;18929;48.008;10.882;2023-05-15T03:02:38;13.40;99.90
32476;DHT22;18929;48.008;10.882;2023-05-15T03:05:05;13.40;99.90
32476;DHT22;18929;48.008;10.882;2023-05-15T03:07:33;13.40;99.90
32476;DHT22;18929;48.008;10.882;2023-05-15T03:10:01;13.50;99.90
32476;DHT22;18929;48.008;10.882;2023-05-15T03:12:28;13.40;99.90
32476;DHT22;18929;48.008;10.882;2023-05-15T03:14:55;13.30;99.90
32476;DHT22;18929;48.008;10.882;2023-05-15T03:17:22;13.20;99.90
32476;DHT22;18929;48.008;10.882;2023-05-15T03:19:49;13.20;99.90
32476;DHT22;18929;48.008;10.882;2023-05-15T03:22:16;13.30;99.90
32476;DHT22;18929;48.008;10.882;2023-05-15T03:24:42;13.40;99.90
32476;DHT22;18929;48.008;10.882;2023-05-15T03:27:11;13.50;99.90
32476;DHT22;18929;48.008;10.882;2023-05-15T03:29:37;13.70;99.90
32476;DHT22;18929;48.008;10.882;2023-05-15T03:32:04;13.70;99.90
32476;DHT22;18929;48.008;10.882;2023-05-15T03:34:31;13.50;99.90
32476;DHT22;18929;48.008;10.882;2023-05-15T03:36:58;13.60;99.90
32476;DHT22;18929;48.008;10.882;2023-05-15T03:39:24;13.70;99.90
32476;DHT22;18929;48.008;10.882;2023-05-15T03:41:51;13.70;99.90
32476;DHT22;18929;48.008;10.882;2023-05-15T03:44:19;13.70;99.90
32476;DHT22;18929;48.008;10.882;2023-05-15T03:46:46;13.50;99.90
32476;DHT22;18929;48.008;10.882;2023-05-15T03:49:13;13.50;99.90
32476;DHT22;18929;48.008;10.882;2023-05-15T03:51:40;13.40;99.90
32476;DHT22;18929;48.008;10.882;2023-05-15T03:54:06;13.40;99.90
32476;DHT22;18929;48.008;10.882;2023-05-15T03:56:33;13.50;99.90
32476;DHT22;18929;48.008;10.882;2023-05-15T03:59:00;13.70;99.90
32476;DHT22;18929;48.008;10.882;2023-05-15T04:01:28;13.70;99.90
32476;DHT22;18929;48.008;10.882;2023-05-15T04:03:55;13.70;99.90
32476;DHT22;18929;48.008;10.882;2023-05-15T04:06:22;13.50;99.90
32476;DHT22;18929;48.008;10.882;2023-05-15T04:12:01;13.10;99.90
32476;DHT22;18929;48.008;10.882;2023-05-15T04:14:28;13.00;99.90
32476;DHT22;18929;48.008;10.882;2023-05-15T04:16:56;13.30;99.90
32476;DHT22;18929;48.008;10.882;2023-05-15T04:19:22;13.40;99.90
32476;DHT22;18929;48.008;10.882;2023-05-15T04:21:49;13.40;99.90
32476;DHT22;18929;48.008;10.882;2023-05-15T04:24:16;13.40;99.90
32476;DHT22;18929;48.008;10.882;2023-05-15T04:26:43;13.30;99.90
32476;DHT22;18929;48.008;10.882;2023-05-15T04:29:09;13.20;99.90
32476;DHT22;18929;48.008;10.882;2023-05-15T04:31:36;13.30;99.90
32476;DHT22;18929;48.008;10.882;2023-05-15T04:34:05;13.00;99.90
32476;DHT22;18929;48.008;10.882;2023-05-15T04:36:32;12.90;99.90
32476;DHT22;18929;48.008;10.882;2023-05-15T04:38:59;13.00;99.90
32476;DHT22;18929;48.008;10.882;2023-05-15T04:41:26;13.10;99.90
32476;DHT22;18929;48.008;10.882;2023-05-15T04:43:53;13.10;99.90
32476;DHT22;18929;48.008;10.882;2023-05-15T04:46:19;13.00;99.90
32476;DHT22;18929;48.008;10.882;2023-05-15T04:48:46;13.10;99.90
32476;DHT22;18929;48.008;10.882;2023-05-15T04:51:14;13.10;99.90
32476;DHT22;18929;48.008;10.882;2023-05-15T04:53:41;13.10;99.90
32476;DHT22;18929;48.008;10.882;2023-05-15T04:56:08;13.00;99.90
32476;DHT22;18929;48.008;10.882;2023-05-15T04:58:35;13.00;99.90
32476;DHT22;18929;48.008;10.882;2023-05-15T05:01:02;13.20;99.90
32476;DHT22;18929;48.008;10.882;2023-05-15T05:03:28;13.40;99.90
32476;DHT22;18929;48.008;10.882;2023-05-15T05:05:55;13.50;99.90
32476;DHT22;18929;48.008;10.882;2023-05-15T05:08:23;13.10;99.90
32476;DHT22;18929;48.008;10.882;2023-05-15T05:10:53;13.20;99.90
32476;DHT22;18929;48.008;10.882;2023-05-15T05:13:20;13.10;99.90
32476;DHT22;18929;48.008;10.882;2023-05-15T05:15:47;13.20;99.90
32476;DHT22;18929;48.008;10.882;2023-05-15T05:18:14;13.20;99.90
32476;DHT22;18929;48.008;10.882;2023-05-15T05:20:40;13.20;99.90
32476;DHT22;18929;48.008;10.882;2023-05-15T05:23:07;13.00;99.90
32476;DHT22;18929;48.008;10.882;2023-05-15T05:25:35;13.20;99.90
32476;DHT22;18929;48.008;10.882;2023-05-15T05:28:02;13.20;99.90
32476;DHT22;18929;48.008;10.882;2023-05-15T05:30:29;13.20;99.90
32476;DHT22;18929;48.008;10.882;2023-05-15T05:32:56;13.00;99.90
32476;DHT22;18929;48.008;10.882;2023-05-15T05:35:23;12.90;99.90
32476;DHT22;18929;48.008;10.882;2023-05-15T05:37:49;13.10;99.90
32476;DHT22;18929;48.008;10.882;2023-05-15T05:40:16;13.10;99.90
32476;DHT22;18929;48.008;10.882;2023-05-15T05:42:45;13.20;99.90
32476;DHT22;18929;48.008;10.882;2023-05-15T05:45:12;13.50;99.90
32476;DHT22;18929;48.008;10.882;2023-05-15T05:47:38;13.30;99.90
32476;DHT22;18929;48.008;10.882;2023-05-15T05:50:06;13.60;99.90
32476;DHT22;18929;48.008;10.882;2023-05-15T05:52:33;13.30;99.90
32476;DHT22;18929;48.008;10.882;2023-05-15T05:54:59;13.40;99.90
32476;DHT22;18929;48.008;10.882;2023-05-15T05:57:26;14.30;99.90
32476;DHT22;18929;48.008;10.882;2023-05-15T05:59:54;14.50;99.90
32476;DHT22;18929;48.008;10.882;2023-05-15T06:02:21;14.60;99.90
32476;DHT22;18929;48.008;10.882;2023-05-15T06:04:48;14.10;99.90
32476;DHT22;18929;48.008;10.882;2023-05-15T06:07:15;13.40;99.90
32476;DHT22;18929;48.008;10.882;2023-05-15T06:09:42;13.50;99.90
32476;DHT22;18929;48.008;10.882;2023-05-15T06:12:10;14.00;99.90
32476;DHT22;18929;48.008;10.882;2023-05-15T06:14:37;13.90;99.90
32476;DHT22;18929;48.008;10.882;2023-05-15T06:17:05;14.20;99.90
32476;DHT22;18929;48.008;10.882;2023-05-15T06:19:31;13.90;99.90
32476;DHT22;18929;48.008;10.882;2023-05-15T06:21:58;13.60;99.90
32476;DHT22;18929;48.008;10.882;2023-05-15T06:24:25;13.40;99.90
32476;DHT22;18929;48.008;10.882;2023-05-15T06:26:52;13.60;99.90
32476;DHT22;18929;48.008;10.882;2023-05-15T06:29:19;13.60;99.90
32476;DHT22;18929;48.008;10.882;2023-05-15T06:31:45;13.40;99.90
32476;DHT22;18929;48.008;10.882;2023-05-15T06:34:14;13.40;99.90
32476;DHT22;18929;48.008;10.882;2023-05-15T06:36:40;13.10;99.90
32476;DHT22;18929;48.008;10.882;2023-05-15T06:39:07;13.10;99.90
32476;DHT22;18929;48.008;10.882;2023-05-15T06:41:35;13.00;99.90
32476;DHT22;18929;48.008;10.882;2023-05-15T06:44:02;12.80;99.90
32476;DHT22;18929;48.008;10.882;2023-05-15T06:46:28;12.90;99.90
32476;DHT22;18929;48.008;10.882;2023-05-15T06:48:55;12.80;99.90
32476;DHT22;18929;48.008;10.882;2023-05-15T06:51:23;12.90;99.90
32476;DHT22;18929;48.008;10.882;2023-05-15T06:53:50;12.80;99.90
32476;DHT22;18929;48.008;10.882;2023-05-15T06:56:17;12.80;99.90
32476;DHT22;18929;48.008;10.882;2023-05-15T06:58:44;13.10;99.90
32476;DHT22;18929;48.008;10.882;2023-05-15T07:01:10;13.20;99.90
32476;DHT22;18929;48.008;10.882;2023-05-15T07:03:37;13.10;99.90
32476;DHT22;18929;48.008;10.882;2023-05-15T07:06:04;13.00;99.90
32476;DHT22;18929;48.008;10.882;2023-05-15T07:08:32;12.80;99.90
32476;DHT22;18929;48.008;10.882;2023-05-15T07:10:59;12.80;99.90
32476;DHT22;18929;48.008;10.882;2023-05-15T07:13:26;12.80;99.90
32476;DHT22;18929;48.008;10.882;2023-05-15T07:15:53;13.10;99.90
32476;DHT22;18929;48.008;10.882;2023-05-15T07:18:20;13.10;99.90
32476;DHT22;18929;48.008;10.882;2023-05-15T07:20:46;13.30;99.90
32476;DHT22;18929;48.008;10.882;2023-05-15T07:23:14;13.20;99.90
32476;DHT22;18929;48.008;10.882;2023-05-15T07:25:42;12.90;99.90
32476;DHT22;18929;48.008;10.882;2023-05-15T07:28:08;13.10;99.90
32476;DHT22;18929;48.008;10.882;2023-05-15T07:30:35;13.20;99.90
32476;DHT22;18929;48.008;10.882;2023-05-15T07:33:02;13.30;99.90
32476;DHT22;18929;48.008;10.882;2023-05-15T07:35:29;13.40;99.90
32476;DHT22;18929;48.008;10.882;2023-05-15T07:37:56;13.30;99.90
32476;DHT22;18929;48.008;10.882;2023-05-15T07:40:22;13.40;99.90
32476;DHT22;18929;48.008;10.882;2023-05-15T07:42:51;13.00;99.90
32476;DHT22;18929;48.008;10.882;2023-05-15T07:45:17;13.40;99.90
32476;DHT22;18929;48.008;10.882;2023-05-15T07:47:44;13.40;99.90
32476;DHT22;18929;48.008;10.882;2023-05-15T07:50:11;13.50;99.90
32476;DHT22;18929;48.008;10.882;2023-05-15T07:52:39;13.50;99.90
32476;DHT22;18929;48.008;10.882;2023-05-15T07:55:06;13.50;99.90
32476;DHT22;18929;48.008;10.882;2023-05-15T07:57:32;13.40;99.90
32476;DHT22;18929;48.008;10.882;2023-05-15T08:00:00;13.10;99.90
32476;DHT22;18929;48.008;10.882;2023-05-15T08:02:35;13.20;99.90
32476;DHT22;18929;48.008;10.882;2023-05-15T08:05:02;13.00;99.90
32476;DHT22;18929;48.008;10.882;2023-05-15T08:07:30;13.10;99.90
32476;DHT22;18929;48.008;10.882;2023-05-15T08:09:57;13.10;99.90
32476;DHT22;18929;48.008;10.882;2023-05-15T08:12:24;13.40;99.90
32476;DHT22;18929;48.008;10.882;2023-05-15T08:14:51;13.60;99.90
32476;DHT22;18929;48.008;10.882;2023-05-15T08:17:20;13.60;99.90
32476;DHT22;18929;48.008;10.882;2023-05-15T08:19:47;13.50;99.90
32476;DHT22;18929;48.008;10.882;2023-05-15T08:22:14;13.40;99.90
32476;DHT22;18929;48.008;10.882;2023-05-15T08:24:41;13.50;99.90
32476;DHT22;18929;48.008;10.882;2023-05-15T08:27:08;13.70;99.90
32476;DHT22;18929;48.008;10.882;2023-05-15T08:29:35;13.70;99.90
32476;DHT22;18929;48.008;10.882;2023-05-15T08:32:02;13.70;99.90
32476;DHT22;18929;48.008;10.882;2023-05-15T08:34:30;13.80;99.90
32476;DHT22;18929;48.008;10.882;2023-05-15T08:36:57;14.00;99.90
32476;DHT22;18929;48.008;10.882;2023-05-15T08:39:24;13.80;99.90
32476;DHT22;18929;48.008;10.882;2023-05-15T08:41:51;13.90;99.90
32476;DHT22;18929;48.008;10.882;2023-05-15T08:44:21;13.90;99.90
32476;DHT22;18929;48.008;10.882;2023-05-15T08:46:49;13.90;99.90
32476;DHT22;18929;48.008;10.882;2023-05-15T08:49:19;13.90;99.90
32476;DHT22;18929;48.008;10.882;2023-05-15T08:51:49;13.60;99.90
32476;DHT22;18929;48.008;10.882;2023-05-15T08:54:16;13.70;99.90
32476;DHT22;18929;48.008;10.882;2023-05-15T08:56:43;14.00;99.90
32476;DHT22;18929;48.008;10.882;2023-05-15T08:59:10;14.10;99.90
32476;DHT22;18929;48.008;10.882;2023-05-15T09:01:37;14.10;99.90
32476;DHT22;18929;48.008;10.882;2023-05-15T09:04:04;14.20;99.90
32476;DHT22;18929;48.008;10.882;2023-05-15T09:06:31;14.30;99.90
32476;DHT22;18929;48.008;10.882;2023-05-15T09:09:00;14.00;99.90
32476;DHT22;18929;48.008;10.882;2023-05-15T09:11:27;14.50;99.90
32476;DHT22;18929;48.008;10.882;2023-05-15T09:13:56;14.20;99.90
32476;DHT22;18929;48.008;10.882;2023-05-15T09:16:23;14.20;99.90
32476;DHT22;18929;48.008;10.882;2023-05-15T09:18:50;14.30;99.90
32476;DHT22;18929;48.008;10.882;2023-05-15T09:21:20;14.50;99.90
32476;DHT22;18929;48.008;10.882;2023-05-15T09:23:47;14.50;99.90
32476;DHT22;18929;48.008;10.882;2023-05-15T09:26:15;14.70;99.90
32476;DHT22;18929;48.008;10.882;2023-05-15T09:28:42;14.60;99.90
32476;DHT22;18929;48.008;10.882;2023-05-15T09:31:09;14.50;99.90
32476;DHT22;18929;48.008;10.882;2023-05-15T09:33:37;14.60;99.90
32476;DHT22;18929;48.008;10.882;2023-05-15T09:36:04;14.90;99.90
32476;DHT22;18929;48.008;10.882;2023-05-15T09:38:31;14.80;99.90
32476;DHT22;18929;48.008;10.882;2023-05-15T09:41:02;14.70;99.90
32476;DHT22;18929;48.008;10.882;2023-05-15T09:43:33;14.60;99.90
32476;DHT22;18929;48.008;10.882;2023-05-15T09:46:00;14.50;99.90
32476;DHT22;18929;48.008;10.882;2023-05-15T09:48:27;14.10;99.90
32476;DHT22;18929;48.008;10.882;2023-05-15T09:53:57;13.60;99.90
32476;DHT22;18929;48.008;10.882;2023-05-15T09:56:24;14.10;99.90
32476;DHT22;18929;48.008;10.882;2023-05-15T09:58:52;14.20;99.90
32476;DHT22;18929;48.008;10.882;2023-05-15T10:01:20;14.40;99.90
32476;DHT22;18929;48.008;10.882;2023-05-15T10:03:55;14.60;99.90
32476;DHT22;18929;48.008;10.882;2023-05-15T10:06:22;14.80;99.90
32476;DHT22;18929;48.008;10.882;2023-05-15T10:08:52;15.00;99.90
32476;DHT22;18929;48.008;10.882;2023-05-15T10:11:19;14.70;99.90
32476;DHT22;18929;48.008;10.882;2023-05-15T10:13:46;14.90;99.90
32476;DHT22;18929;48.008;10.882;2023-05-15T10:16:14;14.80;99.90
32476;DHT22;18929;48.008;10.882;2023-05-15T10:18:41;14.90;99.90
32476;DHT22;18929;48.008;10.882;2023-05-15T10:21:09;15.20;99.90
32476;DHT22;18929;48.008;10.882;2023-05-15T10:23:37;14.90;99.90
32476;DHT22;18929;48.008;10.882;2023-05-15T10:26:07;14.70;99.90
32476;DHT22;18929;48.008;10.882;2023-05-15T10:28:36;14.90;99.90
32476;DHT22;18929;48.008;10.882;2023-05-15T10:31:03;14.80;99.90
32476;DHT22;18929;48.008;10.882;2023-05-15T10:33:32;14.60;99.90
32476;DHT22;18929;48.008;10.882;2023-05-15T10:36:01;15.00;99.90
32476;DHT22;18929;48.008;10.882;2023-05-15T10:38:28;14.80;99.90
32476;DHT22;18929;48.008;10.882;2023-05-15T10:40:56;15.00;99.90
32476;DHT22;18929;48.008;10.882;2023-05-15T10:43:23;15.20;99.90
32476;DHT22;18929;48.008;10.882;2023-05-15T10:45:51;15.30;99.90
32476;DHT22;18929;48.008;10.882;2023-05-15T10:48:18;15.00;99.90
32476;DHT22;18929;48.008;10.882;2023-05-15T10:50:48;15.30;99.90
32476;DHT22;18929;48.008;10.882;2023-05-15T10:53:15;15.30;99.90
32476;DHT22;18929;48.008;10.882;2023-05-15T10:55:42;15.30;99.90
32476;DHT22;18929;48.008;10.882;2023-05-15T10:58:10;15.10;99.90
32476;DHT22;18929;48.008;10.882;2023-05-15T11:00:40;14.80;99.90
32476;DHT22;18929;48.008;10.882;2023-05-15T11:03:07;15.00;99.90
32476;DHT22;18929;48.008;10.882;2023-05-15T11:08:23;15.50;99.90
32476;DHT22;18929;48.008;10.882;2023-05-15T11:10:54;15.40;99.90
32476;DHT22;18929;48.008;10.882;2023-05-15T11:13:20;15.40;99.90
32476;DHT22;18929;48.008;10.882;2023-05-15T11:15:47;14.80;99.90
32476;DHT22;18929;48.008;10.882;2023-05-15T11:18:14;15.00;99.90
32476;DHT22;18929;48.008;10.882;2023-05-15T11:20:42;14.90;99.90
32476;DHT22;18929;48.008;10.882;2023-05-15T11:23:08;14.40;99.90
32476;DHT22;18929;48.008;10.882;2023-05-15T11:25:36;14.60;99.90
32476;DHT22;18929;48.008;10.882;2023-05-15T11:28:03;14.40;99.90
32476;DHT22;18929;48.008;10.882;2023-05-15T11:30:35;14.60;99.90
32476;DHT22;18929;48.008;10.882;2023-05-15T11:33:03;14.70;99.90
32476;DHT22;18929;48.008;10.882;2023-05-15T11:35:33;14.30;99.90
32476;DHT22;18929;48.008;10.882;2023-05-15T11:38:01;14.40;99.90
32476;DHT22;18929;48.008;10.882;2023-05-15T11:40:28;14.30;99.90
32476;DHT22;18929;48.008;10.882;2023-05-15T11:43:04;14.90;99.90
32476;DHT22;18929;48.008;10.882;2023-05-15T11:45:31;15.10;99.90
32476;DHT22;18929;48.008;10.882;2023-05-15T11:47:59;15.00;99.90
32476;DHT22;18929;48.008;10.882;2023-05-15T11:50:26;15.10;99.90
32476;DHT22;18929;48.008;10.882;2023-05-15T11:53:11;15.20;99.90
32476;DHT22;18929;48.008;10.882;2023-05-15T11:55:38;15.40;99.90
32476;DHT22;18929;48.008;10.882;2023-05-15T11:58:11;15.50;99.90
32476;DHT22;18929;48.008;10.882;2023-05-15T12:00:38;15.60;99.90
32476;DHT22;18929;48.008;10.882;2023-05-15T12:03:05;15.90;99.90
32476;DHT22;18929;48.008;10.882;2023-05-15T12:05:32;15.70;99.90
32476;DHT22;18929;48.008;10.882;2023-05-15T12:07:58;15.60;99.90
32476;DHT22;18929;48.008;10.882;2023-05-15T12:10:26;15.60;99.90
32476;DHT22;18929;48.008;10.882;2023-05-15T12:12:53;15.60;99.90
32476;DHT22;18929;48.008;10.882;2023-05-15T12:15:21;15.70;99.90
32476;DHT22;18929;48.008;10.882;2023-05-15T12:17:48;15.80;99.90
32476;DHT22;18929;48.008;10.882;2023-05-15T12:20:16;15.90;99.90
32476;DHT22;18929;48.008;10.882;2023-05-15T12:22:43;15.80;99.90
32476;DHT22;18929;48.008;10.882;2023-05-15T12:25:11;15.70;99.90
32476;DHT22;18929;48.008;10.882;2023-05-15T12:27:38;15.90;99.90
32476;DHT22;18929;48.008;10.882;2023-05-15T12:30:05;16.00;99.90
32476;DHT22;18929;48.008;10.882;2023-05-15T12:32:34;15.80;99.90
32476;DHT22;18929;48.008;10.882;2023-05-15T12:35:01;15.60;99.90
32476;DHT22;18929;48.008;10.882;2023-05-15T12:37:29;15.60;99.90
32476;DHT22;18929;48.008;10.882;2023-05-15T12:39:58;15.80;99.90
32476;DHT22;18929;48.008;10.882;2023-05-15T12:42:25;16.00;99.90
32476;DHT22;18929;48.008;10.882;2023-05-15T12:44:54;15.70;99.90
32476;DHT22;18929;48.008;10.882;2023-05-15T12:47:21;15.80;99.90
32476;DHT22;18929;48.008;10.882;2023-05-15T12:49:49;16.10;99.90
32476;DHT22;18929;48.008;10.882;2023-05-15T12:52:16;15.90;99.90
32476;DHT22;18929;48.008;10.882;2023-05-15T12:54:43;15.70;99.90
32476;DHT22;18929;48.008;10.882;2023-05-15T12:57:10;15.90;99.90
32476;DHT22;18929;48.008;10.882;2023-05-15T12:59:37;15.90;99.90
32476;DHT22;18929;48.008;10.882;2023-05-15T13:02:04;16.00;99.90
32476;DHT22;18929;48.008;10.882;2023-05-15T13:04:34;16.00;99.90
32476;DHT22;18929;48.008;10.882;2023-05-15T13:07:02;16.20;99.90
32476;DHT22;18929;48.008;10.882;2023-05-15T13:09:29;16.30;99.90
32476;DHT22;18929;48.008;10.882;2023-05-15T13:11:57;16.40;99.90
32476;DHT22;18929;48.008;10.882;2023-05-15T13:14:24;15.90;99.90
32476;DHT22;18929;48.008;10.882;2023-05-15T13:16:53;15.90;99.90
32476;DHT22;18929;48.008;10.882;2023-05-15T13:19:20;16.10;99.90
32476;DHT22;18929;48.008;10.882;2023-05-15T13:21:46;16.40;99.90
32476;DHT22;18929;48.008;10.882;2023-05-15T13:24:16;16.50;99.90
32476;DHT22;18929;48.008;10.882;2023-05-15T13:26:43;16.80;99.90
32476;DHT22;18929;48.008;10.882;2023-05-15T13:29:10;16.90;99.90
32476;DHT22;18929;48.008;10.882;2023-05-15T13:31:36;16.60;99.90
32476;DHT22;18929;48.008;10.882;2023-05-15T13:34:03;16.70;99.90
32476;DHT22;18929;48.008;10.882;2023-05-15T13:36:30;16.80;99.90
32476;DHT22;18929;48.008;10.882;2023-05-15T13:38:57;17.20;99.90
32476;DHT22;18929;48.008;10.882;2023-05-15T13:41:25;17.40;99.90
32476;DHT22;18929;48.008;10.882;2023-05-15T13:43:52;17.30;99.90
32476;DHT22;18929;48.008;10.882;2023-05-15T13:46:18;17.20;99.90
32476;DHT22;18929;48.008;10.882;2023-05-15T13:48:45;17.60;99.90
32476;DHT22;18929;48.008;10.882;2023-05-15T13:51:12;17.70;99.90
32476;DHT22;18929;48.008;10.882;2023-05-15T13:53:39;17.70;99.90
32476;DHT22;18929;48.008;10.882;2023-05-15T13:56:06;17.70;99.90
32476;DHT22;18929;48.008;10.882;2023-05-15T13:58:34;17.50;99.90
32476;DHT22;18929;48.008;10.882;2023-05-15T14:01:03;17.50;99.90
32476;DHT22;18929;48.008;10.882;2023-05-15T14:03:30;16.90;99.90
32476;DHT22;18929;48.008;10.882;2023-05-15T14:05:57;16.60;99.90
32476;DHT22;18929;48.008;10.882;2023-05-15T14:08:24;15.80;99.90
32476;DHT22;18929;48.008;10.882;2023-05-15T14:10:51;15.80;99.90
32476;DHT22;18929;48.008;10.882;2023-05-15T14:13:17;15.50;99.90
32476;DHT22;18929;48.008;10.882;2023-05-15T14:15:46;14.90;99.90
32476;DHT22;18929;48.008;10.882;2023-05-15T14:18:12;14.90;99.90
32476;DHT22;18929;48.008;10.882;2023-05-15T14:20:39;14.90;99.90
32476;DHT22;18929;48.008;10.882;2023-05-15T14:23:06;15.20;99.90
32476;DHT22;18929;48.008;10.882;2023-05-15T14:25:33;13.10;99.90
32476;DHT22;18929;48.008;10.882;2023-05-15T14:27:59;12.70;99.90
32476;DHT22;18929;48.008;10.882;2023-05-15T14:30:26;13.30;99.90
32476;DHT22;18929;48.008;10.882;2023-05-15T14:32:54;14.60;99.90
32476;DHT22;18929;48.008;10.882;2023-05-15T14:35:21;13.90;99.90
32476;DHT22;18929;48.008;10.882;2023-05-15T14:37:48;14.50;99.90
32476;DHT22;18929;48.008;10.882;2023-05-15T14:40:15;14.30;99.90
32476;DHT22;18929;48.008;10.882;2023-05-15T14:42:42;13.80;99.90
32476;DHT22;18929;48.008;10.882;2023-05-15T14:45:09;14.40;99.90
32476;DHT22;18929;48.008;10.882;2023-05-15T14:47:36;15.50;99.90
32476;DHT22;18929;48.008;10.882;2023-05-15T14:50:04;16.00;99.90
32476;DHT22;18929;48.008;10.882;2023-05-15T14:52:31;16.20;99.90
32476;DHT22;18929;48.008;10.882;2023-05-15T14:54:58;16.20;99.90
32476;DHT22;18929;48.008;10.882;2023-05-15T14:57:25;16.10;99.90
32476;DHT22;18929;48.008;10.882;2023-05-15T14:59:51;15.50;99.90
32476;DHT22;18929;48.008;10.882;2023-05-15T15:02:18;15.40;99.90
32476;DHT22;18929;48.008;10.882;2023-05-15T15:04:45;15.70;99.90
32476;DHT22;18929;48.008;10.882;2023-05-15T15:07:13;16.00;99.90
32476;DHT22;18929;48.008;10.882;2023-05-15T15:09:40;16.10;99.90
32476;DHT22;18929;48.008;10.882;2023-05-15T15:12:07;15.90;99.90
32476;DHT22;18929;48.008;10.882;2023-05-15T15:14:34;15.90;99.90
32476;DHT22;18929;48.008;10.882;2023-05-15T15:17:00;15.90;99.90
32476;DHT22;18929;48.008;10.882;2023-05-15T15:19:27;15.80;99.90
32476;DHT22;18929;48.008;10.882;2023-05-15T15:21:54;15.70;99.90
32476;DHT22;18929;48.008;10.882;2023-05-15T15:24:22;15.60;99.90
32476;DHT22;18929;48.008;10.882;2023-05-15T15:26:49;15.70;99.90
32476;DHT22;18929;48.008;10.882;2023-05-15T15:29:15;15.40;99.90